createdAt,value
2023-03-16T00:02:28.108Z,73.56
2023-03-16T00:04:59.740Z,73.42
2023-03-16T00:07:32.669Z,72.89
2023-03-16T00:10:04.639Z,72.94
2023-03-16T00:12:37.949Z,72.96
2023-03-16T00:15:11.141Z,72.76
2023-03-16T00:17:48.330Z,72.27
2023-03-16T00:20:20.495Z,73.01
2023-03-16T00:22:52.327Z,72.84
2023-03-16T00:25:24.256Z,73.57
2023-03-16T00:27:57.216Z,73.71
2023-03-16T00:30:29.447Z,73.74
2023-03-16T00:33:02.170Z,73.61
2023-03-16T00:35:34.684Z,74.07
2023-03-16T00:38:06.556Z,74.85
2023-03-16T00:40:38.407Z,74.72
2023-03-16T00:43:11.741Z,74.11
2023-03-16T00:45:44.752Z,74.00
2023-03-16T00:48:16.512Z,74.51
2023-03-16T00:50:48.061Z,74.17
2023-03-16T00:53:19.876Z,74.66
2023-03-16T00:55:53.434Z,73.79
2023-03-16T00:58:26.414Z,74.41
2023-03-16T01:00:59.512Z,74.98
2023-03-16T01:03:31.426Z,74.65
2023-03-16T01:06:06.757Z,74.31
2023-03-16T01:08:39.391Z,75.28
2023-03-16T01:11:16.180Z,74.59
2023-03-16T01:13:54.236Z,74.83
2023-03-16T01:16:25.945Z,74.71
2023-03-16T01:18:57.933Z,74.57
2023-03-16T01:21:32.418Z,74.94
2023-03-16T01:24:04.478Z,75.43
2023-03-16T01:26:37.416Z,75.74
2023-03-16T01:29:10.374Z,75.37
2023-03-16T01:31:43.189Z,75.70
2023-03-16T01:34:18.462Z,75.08
2023-03-16T01:36:53.978Z,75.53
2023-03-16T01:39:25.871Z,76.01
2023-03-16T01:41:58.012Z,75.23
2023-03-16T01:44:50.810Z,75.09
2023-03-16T01:47:23.329Z,74.90
2023-03-16T01:49:58.420Z,75.95
2023-03-16T01:52:36.801Z,75.80
2023-03-16T01:55:13.488Z,75.83
2023-03-16T01:57:50.460Z,76.11
2023-03-16T02:00:31.463Z,74.94
2023-03-16T02:03:09.488Z,75.85
2023-03-16T02:05:49.934Z,75.93
2023-03-16T02:08:23.071Z,76.11
2023-03-16T02:10:56.545Z,75.71
2023-03-16T02:13:29.526Z,75.80
2023-03-16T02:16:03.850Z,76.43
2023-03-16T02:18:36.542Z,75.58
2023-03-16T02:21:19.346Z,75.42
2023-03-16T02:23:51.672Z,75.41
2023-03-16T02:26:34.679Z,75.95
2023-03-16T02:29:18.092Z,75.88
2023-03-16T02:31:52.160Z,76.94
2023-03-16T02:34:24.910Z,75.62
2023-03-16T02:37:00.782Z,76.15
2023-03-16T02:39:34.367Z,76.69
2023-03-16T02:42:13.174Z,76.49
2023-03-16T02:44:48.756Z,77.17
2023-03-16T02:47:35.015Z,76.73
2023-03-16T02:50:09.084Z,77.51
2023-03-16T02:52:41.866Z,75.43
2023-03-16T02:55:13.794Z,76.33
2023-03-16T02:57:45.743Z,75.82
2023-03-16T03:00:18.696Z,76.32
2023-03-16T03:02:52.476Z,75.22
2023-03-16T03:05:24.161Z,74.99
2023-03-16T03:07:56.104Z,76.16
2023-03-16T03:10:28.311Z,76.09
2023-03-16T03:13:00.833Z,75.61
2023-03-16T03:15:33.422Z,76.00
2023-03-16T03:18:07.271Z,75.63
2023-03-16T03:20:39.165Z,76.21
2023-03-16T03:23:10.993Z,75.80
2023-03-16T03:25:42.865Z,76.48
2023-03-16T03:28:15.299Z,76.35
2023-03-16T03:30:46.894Z,75.14
2023-03-16T03:33:20.108Z,76.08
2023-03-16T03:35:57.311Z,76.03
2023-03-16T03:38:30.046Z,75.22
2023-03-16T03:41:01.943Z,75.22
2023-03-16T03:43:34.109Z,75.41
2023-03-16T03:46:06.959Z,75.16
2023-03-16T03:48:41.027Z,75.67
2023-03-16T03:51:12.569Z,76.44
2023-03-16T03:53:44.464Z,77.04
2023-03-16T03:56:16.289Z,76.25
2023-03-16T03:58:48.131Z,75.40
2023-03-16T04:01:20.010Z,76.73
2023-03-16T04:03:54.205Z,75.97
2023-03-16T04:06:26.038Z,75.85
2023-03-16T04:08:57.882Z,76.96
2023-03-16T04:11:29.737Z,75.97
2023-03-16T04:14:01.639Z,76.40
2023-03-16T04:16:34.014Z,76.86
2023-03-16T04:19:06.992Z,76.27
2023-03-16T04:21:38.825Z,76.44
2023-03-16T04:24:14.756Z,76.97
2023-03-16T04:26:47.831Z,76.07
2023-03-16T04:29:20.379Z,77.54
2023-03-16T04:31:53.783Z,76.93
2023-03-16T04:34:27.453Z,77.54
2023-03-16T04:36:59.391Z,77.65
2023-03-16T04:39:31.207Z,77.45
2023-03-16T04:42:03.015Z,77.06
2023-03-16T04:44:34.676Z,77.49
2023-03-16T04:47:06.596Z,77.12
2023-03-16T04:49:39.661Z,77.66
2023-03-16T04:52:13.512Z,76.87
2023-03-16T04:54:45.628Z,77.46
2023-03-16T04:57:19.192Z,77.70
2023-03-16T04:59:51.126Z,77.54
2023-03-16T05:02:22.932Z,77.10
2023-03-16T05:04:55.934Z,77.51
2023-03-16T05:07:28.882Z,77.06
2023-03-16T05:10:00.571Z,77.60
2023-03-16T05:12:32.407Z,77.69
2023-03-16T05:15:04.399Z,77.89
2023-03-16T05:17:37.480Z,78.03
2023-03-16T05:20:16.189Z,77.83
2023-03-16T05:22:49.841Z,77.91
2023-03-16T05:25:22.826Z,77.75
2023-03-16T05:27:55.546Z,77.05
2023-03-16T05:30:27.725Z,77.68
2023-03-16T05:32:59.500Z,77.35
2023-03-16T05:35:32.608Z,76.96
2023-03-16T05:38:04.473Z,77.09
2023-03-16T05:40:37.216Z,77.71
2023-03-16T05:43:09.295Z,77.07
2023-03-16T05:45:40.898Z,77.14
2023-03-16T05:48:12.696Z,77.46
2023-03-16T05:50:45.881Z,76.98
2023-03-16T05:53:17.872Z,77.54
2023-03-16T05:55:54.779Z,76.85
2023-03-16T05:58:26.877Z,76.97
2023-03-16T06:01:01.090Z,77.44
2023-03-16T06:03:32.963Z,77.12
2023-03-16T06:06:06.195Z,77.11
2023-03-16T06:08:38.169Z,77.50
2023-03-16T06:11:09.897Z,78.05
2023-03-16T06:13:42.252Z,78.09
2023-03-16T06:16:14.406Z,77.13
2023-03-16T06:18:46.471Z,77.78
2023-03-16T06:21:19.561Z,77.69
2023-03-16T06:23:51.378Z,78.35
2023-03-16T06:26:23.176Z,78.86
2023-03-16T06:28:55.603Z,79.01
2023-03-16T06:31:27.490Z,78.99
2023-03-16T06:33:59.336Z,78.67
2023-03-16T06:36:32.296Z,79.45
2023-03-16T06:39:04.390Z,78.91
2023-03-16T06:41:36.583Z,79.00
2023-03-16T06:44:08.407Z,79.95
2023-03-16T06:46:40.164Z,79.33
2023-03-16T06:49:12.020Z,79.46
2023-03-16T06:51:45.780Z,80.20
2023-03-16T06:54:17.608Z,79.45
2023-03-16T06:56:49.522Z,79.60
2023-03-16T06:59:21.510Z,80.88
2023-03-16T07:01:53.334Z,80.02
2023-03-16T07:04:25.232Z,79.81
2023-03-16T07:06:58.520Z,79.69
2023-03-16T07:09:30.390Z,80.58
2023-03-16T07:12:02.267Z,80.57
2023-03-16T07:14:34.209Z,80.05
2023-03-16T07:17:06.479Z,79.51
2023-03-16T07:19:41.113Z,80.15
2023-03-16T07:22:14.478Z,80.68
2023-03-16T07:24:46.818Z,79.81
2023-03-16T07:27:18.682Z,80.08
2023-03-16T07:29:50.764Z,80.38
2023-03-16T07:32:22.964Z,79.40
2023-03-16T07:34:54.553Z,80.04
2023-03-16T07:37:27.561Z,79.89
2023-03-16T07:39:59.382Z,79.96
2023-03-16T07:42:31.305Z,80.34
2023-03-16T07:45:03.174Z,80.23
2023-03-16T07:47:35.319Z,80.52
2023-03-16T07:50:09.244Z,80.18
2023-03-16T07:52:42.411Z,79.46
2023-03-16T07:55:16.241Z,78.75
2023-03-16T07:57:48.308Z,78.66
2023-03-16T08:00:23.953Z,79.40
2023-03-16T08:02:57.532Z,78.90
2023-03-16T08:05:29.123Z,78.55
2023-03-16T08:08:02.357Z,78.26
2023-03-16T08:10:34.211Z,77.48
2023-03-16T08:13:05.648Z,78.00
2023-03-16T08:15:37.923Z,78.32
2023-03-16T08:18:10.439Z,77.29
2023-03-16T08:20:44.496Z,76.56
2023-03-16T08:23:17.505Z,76.38
2023-03-16T08:25:52.385Z,75.90
2023-03-16T08:28:25.844Z,76.20
2023-03-16T08:30:58.850Z,75.64
2023-03-16T08:33:30.816Z,75.01
2023-03-16T08:36:02.848Z,75.14
2023-03-16T08:38:35.902Z,75.48
2023-03-16T08:41:07.811Z,75.07
2023-03-16T08:43:40.144Z,75.07
2023-03-16T08:46:13.305Z,73.81
2023-03-16T08:48:46.119Z,72.11
2023-03-16T08:51:18.860Z,72.11
2023-03-16T08:53:52.796Z,72.11
2023-03-16T08:56:24.383Z,71.91
2023-03-16T08:58:57.362Z,71.40
2023-03-16T09:01:31.886Z,69.95
2023-03-16T09:04:05.255Z,69.70
2023-03-16T09:06:39.192Z,70.09
2023-03-16T09:09:12.410Z,67.95
2023-03-16T09:11:47.010Z,68.08
2023-03-16T09:14:21.134Z,67.29
2023-03-16T09:16:53.149Z,68.60
2023-03-16T09:19:29.102Z,67.76
2023-03-16T09:22:03.976Z,66.25
2023-03-16T09:24:37.582Z,65.69
2023-03-16T09:27:12.044Z,64.95
2023-03-16T09:29:46.587Z,64.12
2023-03-16T09:32:19.046Z,63.03
2023-03-16T09:34:52.450Z,63.36
2023-03-16T09:37:27.903Z,59.86
2023-03-16T09:40:06.915Z,61.33
2023-03-16T09:43:03.641Z,59.72
2023-03-16T09:45:49.860Z,62.05
2023-03-16T09:48:24.548Z,59.91
2023-03-16T09:51:00.921Z,59.64
2023-03-16T09:53:37.621Z,60.28
2023-03-16T09:56:30.454Z,60.09
2023-03-16T09:59:54.927Z,57.79
2023-03-16T10:03:35.290Z,59.06
2023-03-16T10:06:22.457Z,56.79
2023-03-16T10:09:07.465Z,57.02
2023-03-16T10:11:48.099Z,57.00
2023-03-16T10:14:30.305Z,58.50
2023-03-16T10:17:11.198Z,56.89
2023-03-16T10:19:49.113Z,56.17
2023-03-16T10:22:28.167Z,55.43
2023-03-16T10:25:08.608Z,52.21
2023-03-16T10:27:45.224Z,54.11
2023-03-16T10:30:23.376Z,55.69
2023-03-16T10:33:01.932Z,51.47
2023-03-16T10:35:42.653Z,51.52
2023-03-16T10:38:28.790Z,52.75
2023-03-16T10:41:00.627Z,53.63
2023-03-16T10:43:36.945Z,51.99
2023-03-16T10:46:14.720Z,51.52
2023-03-16T10:48:53.333Z,50.43
2023-03-16T10:51:30.920Z,50.64
2023-03-16T10:54:15.807Z,50.11
2023-03-16T10:56:50.444Z,48.85
2023-03-16T10:59:34.320Z,49.07
2023-03-16T11:02:16.303Z,50.03
2023-03-16T11:04:49.477Z,48.13
2023-03-16T11:07:24.188Z,49.22
2023-03-16T11:09:58.626Z,48.80
2023-03-16T11:12:34.866Z,51.54
2023-03-16T11:15:25.193Z,49.95
2023-03-16T11:17:57.897Z,50.67
2023-03-16T11:20:34.575Z,50.38
2023-03-16T11:23:14.900Z,50.32
2023-03-16T11:25:54.745Z,51.01
2023-03-16T11:28:38.605Z,47.88
2023-03-16T11:31:24.329Z,48.33
2023-03-16T11:33:57.499Z,47.92
2023-03-16T11:36:43.240Z,48.83
2023-03-16T11:39:26.440Z,46.73
2023-03-16T11:42:14.363Z,48.90
2023-03-16T11:44:56.879Z,48.02
2023-03-16T11:48:04.927Z,46.86
2023-03-16T11:50:48.089Z,47.89
2023-03-16T11:53:33.122Z,46.96
2023-03-16T11:56:17.075Z,47.93
2023-03-16T11:59:02.338Z,48.25
2023-03-16T12:02:00.163Z,49.22
2023-03-16T12:04:52.632Z,47.11
2023-03-16T12:07:45.699Z,47.80
2023-03-16T12:10:27.991Z,46.75
2023-03-16T12:13:17.450Z,46.21
2023-03-16T12:15:55.410Z,45.76
2023-03-16T12:18:34.216Z,47.02
2023-03-16T12:21:13.143Z,46.52
2023-03-16T12:23:55.287Z,46.76
2023-03-16T12:26:38.568Z,45.45
2023-03-16T12:29:22.666Z,44.22
2023-03-16T12:32:04.856Z,43.29
2023-03-16T12:34:47.453Z,45.58
2023-03-16T12:37:31.051Z,43.78
2023-03-16T12:40:29.920Z,41.18
2023-03-16T12:43:19.006Z,40.34
2023-03-16T12:46:00.597Z,41.80
2023-03-16T12:48:38.738Z,43.83
2023-03-16T12:51:11.486Z,42.95
2023-03-16T12:53:55.447Z,42.04
2023-03-16T12:56:36.429Z,43.39
2023-03-16T12:59:16.412Z,42.31
2023-03-16T13:01:54.561Z,43.46
2023-03-16T13:04:36.271Z,42.43
2023-03-16T13:07:17.357Z,42.31
2023-03-16T13:09:57.217Z,42.40
2023-03-16T13:12:32.900Z,43.04
2023-03-16T13:15:19.967Z,43.18
2023-03-16T13:18:05.238Z,43.41
2023-03-16T13:20:50.782Z,43.28
2023-03-16T13:23:27.445Z,42.95
2023-03-16T13:26:15.282Z,43.00
2023-03-16T13:28:52.112Z,43.45
2023-03-16T13:31:29.876Z,45.17
2023-03-16T13:34:03.802Z,44.15
2023-03-16T13:36:38.069Z,44.59
2023-03-16T13:39:19.735Z,44.01
2023-03-16T13:42:10.680Z,44.50
2023-03-16T13:44:45.666Z,44.12
2023-03-16T13:47:20.480Z,44.43
2023-03-16T13:49:56.476Z,44.19
2023-03-16T13:52:34.165Z,42.57
2023-03-16T13:55:15.310Z,43.78
2023-03-16T13:57:51.418Z,42.68
2023-03-16T14:00:29.010Z,40.88
2023-03-16T14:03:09.516Z,43.11
2023-03-16T14:05:41.536Z,41.49
2023-03-16T14:08:23.304Z,41.11
2023-03-16T14:11:00.614Z,42.52
2023-03-16T14:13:39.419Z,42.60
2023-03-16T14:16:17.765Z,40.14
2023-03-16T14:18:53.726Z,39.80
2023-03-16T14:21:30.298Z,40.10
2023-03-16T14:24:05.401Z,40.62
2023-03-16T14:26:46.457Z,42.41
2023-03-16T14:29:26.718Z,42.34
2023-03-16T14:32:00.070Z,42.19
2023-03-16T14:34:39.570Z,41.50
2023-03-16T14:37:14.708Z,43.64
2023-03-16T14:39:47.830Z,44.31
2023-03-16T14:42:27.474Z,42.08
2023-03-16T14:45:04.738Z,43.50
2023-03-16T14:47:43.238Z,42.80
2023-03-16T14:50:19.693Z,44.56
2023-03-16T14:52:52.664Z,45.63
2023-03-16T14:55:25.808Z,45.07
2023-03-16T14:57:57.562Z,44.40
2023-03-16T15:00:37.158Z,44.58
2023-03-16T15:03:18.428Z,44.07
2023-03-16T15:05:53.106Z,44.25
2023-03-16T15:08:32.106Z,45.11
2023-03-16T15:11:07.848Z,44.12
2023-03-16T15:13:59.512Z,44.73
2023-03-16T15:16:34.352Z,44.86
2023-03-16T15:19:06.296Z,45.71
2023-03-16T15:21:38.082Z,45.75
2023-03-16T15:24:12.599Z,44.78
2023-03-16T15:26:44.203Z,44.70
2023-03-16T15:29:19.695Z,45.35
2023-03-16T15:31:54.496Z,43.62
2023-03-16T15:34:27.355Z,45.42
2023-03-16T15:36:58.910Z,46.30
2023-03-16T15:39:30.771Z,45.62
2023-03-16T15:42:02.727Z,46.27
2023-03-16T15:44:34.538Z,45.48
2023-03-16T15:47:07.672Z,47.25
2023-03-16T15:49:47.276Z,48.49
2023-03-16T15:52:32.899Z,46.80
2023-03-16T15:55:08.298Z,47.53
2023-03-16T15:57:41.221Z,47.98
2023-03-16T16:00:28.402Z,48.31
2023-03-16T16:03:03.636Z,48.13
2023-03-16T16:05:36.563Z,48.34
2023-03-16T16:08:09.434Z,47.75
2023-03-16T16:10:44.656Z,48.44
2023-03-16T16:13:24.832Z,49.76
2023-03-16T16:15:59.001Z,49.19
2023-03-16T16:18:37.330Z,50.15
2023-03-16T16:21:19.142Z,50.66
2023-03-16T16:23:51.707Z,49.32
2023-03-16T16:26:48.316Z,49.73
2023-03-16T16:29:27.072Z,49.73
2023-03-16T16:31:59.099Z,50.08
2023-03-16T16:34:32.113Z,50.19
2023-03-16T16:37:04.178Z,50.03
2023-03-16T16:39:35.848Z,50.12
2023-03-16T16:42:13.076Z,50.10
2023-03-16T16:44:44.917Z,50.27
2023-03-16T16:47:23.483Z,50.08
2023-03-16T16:49:57.647Z,50.23
2023-03-16T16:52:29.522Z,50.63
2023-03-16T16:55:01.543Z,51.16
2023-03-16T16:57:33.296Z,51.86
2023-03-16T17:00:07.256Z,52.11
2023-03-16T17:02:48.423Z,52.17
2023-03-16T17:05:27.094Z,52.67
2023-03-16T17:08:03.984Z,52.29
2023-03-16T17:10:37.705Z,53.11
2023-03-16T17:13:15.707Z,52.21
2023-03-16T17:15:47.887Z,52.74
2023-03-16T17:18:20.572Z,53.23
2023-03-16T17:20:53.770Z,52.75
2023-03-16T17:23:34.411Z,52.82
2023-03-16T17:26:14.753Z,52.50
2023-03-16T17:28:52.942Z,52.71
2023-03-16T17:31:35.163Z,51.88
2023-03-16T17:34:16.727Z,51.04
2023-03-16T17:36:51.126Z,51.58
2023-03-16T17:39:27.040Z,52.23
2023-03-16T17:42:02.911Z,52.52
2023-03-16T17:44:39.053Z,52.70
2023-03-16T17:47:21.381Z,53.41
2023-03-16T17:49:53.591Z,52.77
2023-03-16T17:52:29.753Z,52.34
2023-03-16T17:55:01.294Z,52.08
2023-03-16T17:57:36.931Z,52.06
2023-03-16T18:00:22.480Z,52.34
2023-03-16T18:02:57.320Z,52.81
2023-03-16T18:05:32.584Z,52.13
2023-03-16T18:08:14.971Z,52.44
2023-03-16T18:10:49.068Z,52.21
2023-03-16T18:13:29.053Z,52.14
2023-03-16T18:16:02.698Z,51.58
2023-03-16T18:18:39.621Z,51.81
2023-03-16T18:21:17.847Z,51.08
2023-03-16T18:23:53.633Z,51.29
2023-03-16T18:26:27.441Z,50.79
2023-03-16T18:28:59.308Z,51.24
2023-03-16T18:31:32.525Z,50.62
2023-03-16T18:34:07.149Z,51.13
2023-03-16T18:36:41.179Z,51.54
2023-03-16T18:39:22.897Z,51.47
2023-03-16T18:41:54.747Z,50.79
2023-03-16T18:44:30.383Z,50.67
2023-03-16T18:47:05.902Z,50.72
2023-03-16T18:49:40.291Z,50.80
2023-03-16T18:52:22.042Z,50.21
2023-03-16T18:54:55.624Z,50.81
2023-03-16T18:57:29.541Z,50.21
2023-03-16T19:00:01.399Z,50.68
2023-03-16T19:02:39.349Z,50.07
2023-03-16T19:05:17.527Z,49.86
2023-03-16T19:07:53.051Z,49.64
2023-03-16T19:10:35.416Z,49.69
2023-03-16T19:13:14.459Z,50.50
2023-03-16T19:15:46.729Z,50.73
2023-03-16T19:18:19.645Z,50.45
2023-03-16T19:20:54.738Z,50.52
2023-03-16T19:23:31.440Z,50.68
2023-03-16T19:26:04.594Z,50.37
2023-03-16T19:28:40.838Z,50.84
2023-03-16T19:31:22.262Z,51.13
2023-03-16T19:33:54.026Z,50.78
2023-03-16T19:36:30.237Z,51.10
2023-03-16T19:39:04.054Z,51.52
2023-03-16T19:41:40.370Z,50.92
2023-03-16T19:44:18.524Z,51.68
2023-03-16T19:46:52.216Z,51.92
2023-03-16T19:49:27.016Z,51.97
2023-03-16T19:52:00.087Z,51.73
2023-03-16T19:54:35.052Z,51.67
2023-03-16T19:57:15.311Z,51.92
2023-03-16T19:59:51.365Z,51.91
2023-03-16T20:02:37.121Z,52.11
2023-03-16T20:05:16.051Z,52.35
2023-03-16T20:07:47.919Z,51.94
2023-03-16T20:10:28.949Z,52.53
2023-03-16T20:13:05.653Z,52.66
2023-03-16T20:15:38.578Z,52.54
2023-03-16T20:18:14.406Z,52.76
2023-03-16T20:20:47.741Z,52.78
2023-03-16T20:23:24.366Z,53.02
2023-03-16T20:26:01.394Z,53.12
2023-03-16T20:28:39.970Z,54.13
2023-03-16T20:31:18.705Z,53.98
2023-03-16T20:33:52.952Z,54.01
2023-03-16T20:36:26.569Z,54.37
2023-03-16T20:38:58.201Z,54.43
2023-03-16T20:41:32.884Z,54.49
2023-03-16T20:44:06.377Z,54.80
2023-03-16T20:46:41.087Z,54.60
2023-03-16T20:49:32.302Z,54.80
2023-03-16T20:52:03.997Z,55.38
2023-03-16T20:54:35.841Z,55.08
2023-03-16T20:57:17.245Z,55.01
2023-03-16T20:59:51.589Z,55.45
2023-03-16T21:02:34.004Z,55.53
2023-03-16T21:05:08.915Z,55.95
2023-03-16T21:07:40.780Z,55.81
2023-03-16T21:10:15.878Z,55.54
2023-03-16T21:12:53.026Z,55.68
2023-03-16T21:15:30.747Z,56.12
2023-03-16T21:18:06.430Z,56.94
2023-03-16T21:20:39.182Z,56.03
2023-03-16T21:23:17.031Z,56.64
2023-03-16T21:25:56.634Z,57.01
2023-03-16T21:28:33.032Z,57.34
2023-03-16T21:31:08.380Z,57.24
2023-03-16T21:33:43.168Z,56.76
2023-03-16T21:36:21.094Z,57.71
2023-03-16T21:38:56.371Z,58.00
2023-03-16T21:41:28.207Z,58.99
2023-03-16T21:44:00.133Z,58.12
2023-03-16T21:46:32.540Z,58.67
2023-03-16T21:49:04.901Z,58.72
2023-03-16T21:51:36.891Z,58.69
2023-03-16T21:54:15.418Z,59.03
2023-03-16T21:56:47.684Z,59.36
2023-03-16T21:59:23.416Z,59.31
2023-03-16T22:02:02.067Z,59.48
2023-03-16T22:04:36.600Z,59.33
2023-03-16T22:07:11.443Z,59.30
2023-03-16T22:09:43.396Z,59.77
2023-03-16T22:12:16.586Z,59.41
2023-03-16T22:14:49.838Z,59.64
2023-03-16T22:17:27.427Z,59.30
2023-03-16T22:20:00.307Z,59.63
2023-03-16T22:22:35.237Z,59.38
2023-03-16T22:25:14.513Z,59.75
2023-03-16T22:27:48.724Z,59.84
2023-03-16T22:30:20.683Z,59.25
2023-03-16T22:32:58.665Z,59.56
2023-03-16T22:35:39.016Z,59.87
2023-03-16T22:38:16.458Z,59.50
2023-03-16T22:40:48.493Z,59.73
2023-03-16T22:43:29.496Z,59.64
2023-03-16T22:46:01.438Z,59.30
2023-03-16T22:48:35.577Z,59.61
2023-03-16T22:51:08.327Z,59.65
2023-03-16T22:53:45.888Z,59.92
2023-03-16T22:56:17.810Z,59.75
2023-03-16T22:58:54.823Z,59.57
2023-03-16T23:01:32.589Z,60.07
2023-03-16T23:04:13.744Z,60.07
2023-03-16T23:06:50.838Z,59.92
2023-03-16T23:09:23.441Z,60.52
2023-03-16T23:11:59.363Z,60.19
2023-03-16T23:14:38.064Z,60.41
2023-03-16T23:17:13.433Z,60.61
2023-03-16T23:19:47.827Z,60.49
2023-03-16T23:22:19.778Z,60.07
2023-03-16T23:24:51.586Z,60.37
2023-03-16T23:27:24.704Z,60.43
2023-03-16T23:29:56.293Z,60.14
2023-03-16T23:32:28.363Z,59.78
2023-03-16T23:35:02.113Z,59.88
2023-03-16T23:37:34.019Z,59.70
2023-03-16T23:40:05.922Z,59.52
2023-03-16T23:42:38.335Z,59.83
2023-03-16T23:45:20.843Z,59.56
2023-03-16T23:47:55.364Z,58.96
2023-03-16T23:50:34.095Z,59.33
2023-03-16T23:53:11.685Z,59.73
2023-03-16T23:55:43.883Z,59.55
2023-03-16T23:58:16.958Z,59.80
